createdAt,value
2022-09-12T00:01:40.983Z,13.66
2022-09-12T00:04:11.996Z,13.74
2022-09-12T00:06:40.286Z,13.76
2022-09-12T00:09:12.741Z,13.92
2022-09-12T00:11:42.689Z,13.82
2022-09-12T00:14:12.845Z,13.68
2022-09-12T00:16:41.744Z,13.49
2022-09-12T00:19:11.247Z,13.40
2022-09-12T00:21:41.273Z,13.33
2022-09-12T00:24:12.174Z,13.32
2022-09-12T00:26:40.308Z,13.28
2022-09-12T00:29:08.568Z,13.25
2022-09-12T00:31:37.077Z,13.27
2022-09-12T00:34:05.303Z,13.23
2022-09-12T00:36:33.452Z,13.24
2022-09-12T00:39:01.807Z,13.24
2022-09-12T00:41:34.547Z,13.20
2022-09-12T00:44:24.368Z,13.20
2022-09-12T00:46:56.905Z,13.23
2022-09-12T00:49:29.359Z,13.29
2022-09-12T00:52:04.605Z,13.35
2022-09-12T00:54:36.727Z,13.36
2022-09-12T00:57:09.790Z,13.48
2022-09-12T00:59:45.572Z,13.49
2022-09-12T01:02:14.037Z,13.53
2022-09-12T01:04:43.478Z,13.62
2022-09-12T01:07:12.431Z,13.54
2022-09-12T01:09:43.269Z,13.55
2022-09-12T01:12:15.209Z,13.41
2022-09-12T01:14:43.877Z,13.41
2022-09-12T01:17:14.253Z,13.43
2022-09-12T01:20:10.290Z,13.40
2022-09-12T01:23:01.900Z,13.44
2022-09-12T01:25:34.944Z,13.60
2022-09-12T01:28:35.439Z,13.41
2022-09-12T01:31:10.156Z,13.27
2022-09-12T01:33:54.536Z,13.12
2022-09-12T01:36:42.356Z,13.16
2022-09-12T01:39:18.793Z,13.25
2022-09-12T01:41:54.164Z,13.33
2022-09-12T01:44:30.565Z,13.40
2022-09-12T01:47:08.709Z,13.43
2022-09-12T01:49:41.646Z,13.50
2022-09-12T01:52:18.644Z,13.51
2022-09-12T01:54:52.555Z,13.52
2022-09-12T01:57:28.467Z,13.39
2022-09-12T02:00:03.856Z,13.47
2022-09-12T02:02:37.020Z,13.46
2022-09-12T02:05:09.798Z,13.48
2022-09-12T02:07:41.115Z,13.52
2022-09-12T02:10:13.770Z,13.55
2022-09-12T02:12:47.876Z,13.57
2022-09-12T02:15:20.298Z,13.62
2022-09-12T02:17:53.604Z,13.61
2022-09-12T02:20:46.462Z,13.60
2022-09-12T02:23:18.515Z,13.58
2022-09-12T02:25:50.057Z,13.62
2022-09-12T02:28:23.113Z,13.68
2022-09-12T02:31:00.814Z,13.74
2022-09-12T02:33:37.529Z,13.84
2022-09-12T02:36:14.532Z,13.84
2022-09-12T02:38:45.850Z,13.91
2022-09-12T02:41:17.136Z,13.93
2022-09-12T02:43:45.372Z,13.88
2022-09-12T02:46:20.424Z,13.83
2022-09-12T02:48:49.929Z,13.84
2022-09-12T02:51:23.401Z,13.86
2022-09-12T02:53:52.438Z,13.89
2022-09-12T02:56:26.146Z,13.92
2022-09-12T02:58:55.935Z,13.97
2022-09-12T03:01:37.802Z,13.92
2022-09-12T03:04:41.143Z,13.95
2022-09-12T03:07:17.783Z,13.99
2022-09-12T03:09:52.226Z,13.97
2022-09-12T03:12:42.458Z,13.97
2022-09-12T03:15:23.986Z,14.04
2022-09-12T03:18:06.293Z,14.04
2022-09-12T03:20:46.444Z,14.05
2022-09-12T03:23:25.879Z,14.05
2022-09-12T03:26:00.465Z,14.11
2022-09-12T03:28:29.399Z,14.17
2022-09-12T03:30:58.195Z,14.23
2022-09-12T03:33:28.048Z,14.31
2022-09-12T03:35:56.864Z,14.36
2022-09-12T03:38:26.408Z,14.36
2022-09-12T03:40:55.103Z,14.38
2022-09-12T03:43:23.507Z,14.43
2022-09-12T03:45:53.539Z,14.38
2022-09-12T03:48:22.091Z,14.34
2022-09-12T03:50:50.399Z,14.30
2022-09-12T03:53:18.597Z,14.27
2022-09-12T03:55:48.247Z,14.23
2022-09-12T03:58:16.485Z,14.17
2022-09-12T04:00:45.622Z,14.29
2022-09-12T04:03:14.000Z,14.34
2022-09-12T04:05:42.298Z,14.33
2022-09-12T04:08:10.357Z,14.31
2022-09-12T04:10:38.637Z,14.30
2022-09-12T04:13:10.059Z,14.27
2022-09-12T04:15:38.107Z,14.31
2022-09-12T04:18:06.892Z,14.30
2022-09-12T04:20:35.136Z,14.33
2022-09-12T04:23:03.231Z,14.31
2022-09-12T04:25:31.682Z,14.34
2022-09-12T04:27:59.802Z,14.28
2022-09-12T04:30:29.306Z,14.21
2022-09-12T04:32:57.805Z,14.19
2022-09-12T04:35:26.029Z,14.15
2022-09-12T04:37:54.414Z,14.12
2022-09-12T04:40:23.102Z,14.09
2022-09-12T04:42:51.358Z,14.09
2022-09-12T04:45:19.598Z,14.05
2022-09-12T04:47:49.464Z,14.12
2022-09-12T04:50:17.737Z,14.06
2022-09-12T04:52:51.130Z,14.03
2022-09-12T04:55:19.449Z,14.07
2022-09-12T04:57:47.496Z,14.04
2022-09-12T05:00:16.054Z,13.99
2022-09-12T05:02:44.490Z,14.11
2022-09-12T05:05:14.065Z,13.97
2022-09-12T05:07:42.352Z,14.20
2022-09-12T05:10:13.611Z,14.16
2022-09-12T05:12:41.687Z,14.21
2022-09-12T05:15:11.141Z,14.13
2022-09-12T05:17:39.559Z,14.12
2022-09-12T05:20:09.801Z,14.24
2022-09-12T05:22:42.686Z,14.20
2022-09-12T05:25:13.363Z,14.23
2022-09-12T05:27:41.602Z,14.19
2022-09-12T05:30:11.677Z,14.21
2022-09-12T05:32:40.483Z,14.35
2022-09-12T05:35:08.810Z,14.36
2022-09-12T05:37:38.624Z,14.41
2022-09-12T05:40:08.731Z,14.55
2022-09-12T05:42:36.920Z,14.63
2022-09-12T05:45:06.167Z,14.69
2022-09-12T05:47:34.386Z,14.63
2022-09-12T05:50:02.460Z,14.69
2022-09-12T05:52:31.293Z,14.60
2022-09-12T05:55:00.979Z,14.53
2022-09-12T05:57:29.362Z,14.59
2022-09-12T05:59:57.676Z,14.60
2022-09-12T06:02:26.745Z,14.62
2022-09-12T06:04:54.927Z,14.56
2022-09-12T06:07:23.268Z,14.59
2022-09-12T06:09:51.753Z,14.60
2022-09-12T06:12:21.311Z,14.64
2022-09-12T06:14:49.721Z,14.66
2022-09-12T06:17:18.955Z,14.70
2022-09-12T06:19:47.152Z,14.76
2022-09-12T06:22:15.739Z,14.80
2022-09-12T06:24:44.047Z,14.83
2022-09-12T06:27:12.159Z,14.89
2022-09-12T06:29:41.911Z,14.93
2022-09-12T06:32:11.761Z,14.98
2022-09-12T06:34:40.047Z,15.01
2022-09-12T06:37:08.536Z,15.10
2022-09-12T06:39:38.754Z,15.18
2022-09-12T06:42:07.212Z,15.14
2022-09-12T06:44:35.324Z,15.14
2022-09-12T06:47:05.468Z,15.16
2022-09-12T06:49:33.891Z,15.23
2022-09-12T06:52:02.248Z,15.30
2022-09-12T06:54:31.249Z,15.33
2022-09-12T06:56:59.410Z,15.44
2022-09-12T06:59:27.676Z,15.54
2022-09-12T07:01:56.821Z,15.61
2022-09-12T07:04:26.608Z,15.65
2022-09-12T07:06:54.714Z,15.73
2022-09-12T07:09:22.949Z,15.81
2022-09-12T07:11:51.263Z,15.95
2022-09-12T07:14:19.471Z,15.97
2022-09-12T07:16:47.638Z,16.08
2022-09-12T07:19:15.749Z,16.17
2022-09-12T07:21:45.695Z,16.25
2022-09-12T07:24:13.722Z,16.33
2022-09-12T07:26:42.714Z,16.40
2022-09-12T07:29:35.879Z,16.47
2022-09-12T07:32:06.079Z,16.54
2022-09-12T07:34:35.169Z,16.56
2022-09-12T07:37:04.804Z,16.55
2022-09-12T07:39:33.069Z,16.58
2022-09-12T07:42:01.788Z,16.60
2022-09-12T07:44:30.292Z,16.71
2022-09-12T07:46:58.468Z,16.77
2022-09-12T07:49:26.777Z,16.76
2022-09-12T07:51:55.551Z,16.77
2022-09-12T07:54:25.173Z,16.79
2022-09-12T07:56:53.375Z,16.78
2022-09-12T07:59:41.833Z,16.79
2022-09-12T08:02:17.035Z,16.78
2022-09-12T08:04:46.425Z,16.81
2022-09-12T08:07:14.543Z,16.89
2022-09-12T08:09:44.121Z,16.91
2022-09-12T08:12:12.330Z,16.96
2022-09-12T08:14:40.472Z,16.99
2022-09-12T08:17:08.737Z,17.06
2022-09-12T08:19:37.058Z,17.12
2022-09-12T08:22:05.572Z,17.10
2022-09-12T08:24:33.888Z,17.23
2022-09-12T08:27:03.717Z,17.34
2022-09-12T08:29:31.839Z,17.43
2022-09-12T08:32:00.123Z,17.42
2022-09-12T08:34:28.611Z,17.46
2022-09-12T08:36:56.738Z,17.72
2022-09-12T08:39:25.182Z,17.85
2022-09-12T08:42:02.791Z,17.86
2022-09-12T08:44:48.420Z,17.96
2022-09-12T08:47:23.655Z,17.93
2022-09-12T08:50:11.879Z,17.80
2022-09-12T08:52:44.882Z,17.74
2022-09-12T08:55:26.971Z,17.86
2022-09-12T08:57:55.578Z,18.22
2022-09-12T09:00:26.733Z,18.51
2022-09-12T09:03:37.951Z,18.73
2022-09-12T09:06:15.423Z,18.94
2022-09-12T09:09:03.826Z,18.90
2022-09-12T09:12:01.999Z,18.86
2022-09-12T09:14:49.068Z,19.01
2022-09-12T09:17:24.869Z,19.11
2022-09-12T09:20:00.151Z,19.28
2022-09-12T09:22:39.800Z,19.38
2022-09-12T09:25:14.226Z,19.45
2022-09-12T09:27:48.215Z,19.40
2022-09-12T09:30:18.835Z,19.48
2022-09-12T09:32:53.801Z,19.42
2022-09-12T09:35:36.217Z,19.25
2022-09-12T09:38:20.642Z,19.15
2022-09-12T09:41:01.602Z,19.23
2022-09-12T09:43:30.371Z,19.31
2022-09-12T09:46:00.514Z,19.29
2022-09-12T09:48:33.582Z,19.20
2022-09-12T09:51:04.403Z,19.20
2022-09-12T09:53:38.930Z,19.16
2022-09-12T09:56:12.861Z,19.24
2022-09-12T09:58:41.573Z,19.40
2022-09-12T10:01:17.077Z,19.57
2022-09-12T10:03:52.003Z,19.50
2022-09-12T10:06:32.477Z,19.48
2022-09-12T10:09:18.876Z,19.50
2022-09-12T10:11:47.667Z,19.46
2022-09-12T10:14:41.105Z,19.32
2022-09-12T10:17:33.926Z,19.29
2022-09-12T10:20:22.035Z,19.14
2022-09-12T10:22:51.025Z,19.26
2022-09-12T10:25:20.722Z,19.34
2022-09-12T10:27:56.590Z,19.25
2022-09-12T10:30:28.794Z,19.25
2022-09-12T10:33:00.710Z,19.33
2022-09-12T10:35:43.997Z,19.51
2022-09-12T10:38:17.200Z,19.55
2022-09-12T10:40:45.945Z,19.53
2022-09-12T10:43:19.864Z,19.50
2022-09-12T10:45:48.220Z,19.56
2022-09-12T10:48:29.708Z,19.54
2022-09-12T10:51:00.266Z,19.62
2022-09-12T10:53:34.318Z,19.68
2022-09-12T10:56:13.676Z,19.69
2022-09-12T10:58:55.482Z,19.74
2022-09-12T11:01:36.537Z,19.73
2022-09-12T11:04:21.822Z,19.67
2022-09-12T11:07:00.099Z,19.64
2022-09-12T11:09:37.488Z,19.65
2022-09-12T11:12:13.123Z,19.55
2022-09-12T11:14:55.883Z,19.46
2022-09-12T11:17:38.911Z,19.50
2022-09-12T11:20:42.342Z,19.38
2022-09-12T11:23:45.590Z,19.41
2022-09-12T11:26:29.322Z,19.50
2022-09-12T11:29:08.780Z,19.50
2022-09-12T11:31:59.563Z,19.41
2022-09-12T11:34:38.590Z,19.51
2022-09-12T11:37:21.324Z,19.60
2022-09-12T11:39:55.606Z,19.66
2022-09-12T11:42:33.141Z,19.58
2022-09-12T11:45:11.878Z,19.66
2022-09-12T11:47:41.742Z,19.69
2022-09-12T11:50:23.943Z,19.60
2022-09-12T11:52:54.619Z,19.69
2022-09-12T11:55:28.483Z,19.68
2022-09-12T11:57:59.337Z,19.68
2022-09-12T12:00:33.649Z,19.76
2022-09-12T12:03:09.678Z,19.71
2022-09-12T12:05:44.568Z,19.75
2022-09-12T12:08:14.722Z,19.84
2022-09-12T12:10:44.992Z,19.89
2022-09-12T12:13:22.894Z,19.78
2022-09-12T12:15:55.655Z,19.81
2022-09-12T12:18:25.975Z,19.92
2022-09-12T12:20:55.846Z,19.86
2022-09-12T12:23:26.477Z,19.86
2022-09-12T12:25:56.662Z,19.77
2022-09-12T12:29:03.722Z,19.76
2022-09-12T12:31:32.519Z,19.81
2022-09-12T12:34:20.994Z,19.84
2022-09-12T12:36:50.379Z,19.87
2022-09-12T12:40:03.223Z,19.73
2022-09-12T12:43:10.096Z,19.68
2022-09-12T12:46:05.945Z,19.57
2022-09-12T12:49:01.728Z,19.60
2022-09-12T12:51:36.588Z,19.60
2022-09-12T12:54:12.838Z,19.66
2022-09-12T12:56:43.737Z,19.62
2022-09-12T12:59:21.593Z,19.64
2022-09-12T13:01:55.618Z,19.63
2022-09-12T13:04:26.922Z,19.72
2022-09-12T13:07:07.140Z,19.84
2022-09-12T13:09:40.100Z,19.80
2022-09-12T13:12:11.411Z,19.91
2022-09-12T13:14:54.679Z,19.95
2022-09-12T13:17:42.700Z,19.95
2022-09-12T13:20:30.064Z,19.94
2022-09-12T13:22:59.682Z,20.01
2022-09-12T13:25:33.008Z,20.07
2022-09-12T13:28:07.836Z,20.03
2022-09-12T13:30:38.087Z,20.08
2022-09-12T13:33:23.357Z,19.98
2022-09-12T13:36:32.414Z,19.81
2022-09-12T13:39:16.678Z,19.94
2022-09-12T13:42:09.043Z,20.02
2022-09-12T13:44:44.027Z,20.10
2022-09-12T13:47:17.049Z,20.22
2022-09-12T13:49:48.003Z,20.15
2022-09-12T13:52:20.233Z,20.14
2022-09-12T13:54:51.301Z,20.18
2022-09-12T13:57:31.276Z,20.09
2022-09-12T14:00:01.551Z,20.10
2022-09-12T14:02:31.477Z,19.99
2022-09-12T14:05:12.515Z,19.97
2022-09-12T14:07:52.718Z,20.02
2022-09-12T14:10:28.325Z,20.04
2022-09-12T14:12:58.926Z,20.01
2022-09-12T14:15:30.588Z,19.86
2022-09-12T14:18:01.693Z,19.78
2022-09-12T14:20:33.328Z,19.64
2022-09-12T14:23:04.716Z,19.69
2022-09-12T14:25:39.386Z,19.73
2022-09-12T14:28:08.062Z,19.71
2022-09-12T14:30:38.008Z,19.74
2022-09-12T14:33:21.433Z,19.65
2022-09-12T14:35:53.284Z,19.69
2022-09-12T14:38:31.845Z,19.71
2022-09-12T14:41:03.048Z,19.76
2022-09-12T14:43:33.283Z,19.77
2022-09-12T14:46:04.446Z,19.70
2022-09-12T14:48:37.770Z,19.56
2022-09-12T14:51:08.659Z,19.51
2022-09-12T14:53:39.849Z,19.57
2022-09-12T14:56:10.557Z,19.61
2022-09-12T14:58:39.895Z,19.63
2022-09-12T15:01:25.797Z,19.61
2022-09-12T15:03:57.671Z,19.63
2022-09-12T15:06:30.840Z,19.69
2022-09-12T15:09:01.084Z,19.70
2022-09-12T15:11:29.302Z,19.70
2022-09-12T15:13:57.534Z,19.68
2022-09-12T15:16:25.796Z,19.62
2022-09-12T15:18:54.102Z,19.50
2022-09-12T15:21:22.917Z,19.46
2022-09-12T15:23:53.957Z,19.43
2022-09-12T15:26:24.284Z,19.38
2022-09-12T15:28:52.671Z,19.37
2022-09-12T15:31:25.995Z,19.32
2022-09-12T15:33:55.184Z,19.30
2022-09-12T15:36:24.924Z,19.35
2022-09-12T15:38:54.745Z,19.25
2022-09-12T15:41:27.234Z,19.29
2022-09-12T15:43:56.672Z,19.21
2022-09-12T15:46:25.085Z,19.22
2022-09-12T15:48:53.358Z,19.30
2022-09-12T15:51:22.995Z,19.16
2022-09-12T15:53:52.631Z,19.22
2022-09-12T15:56:23.894Z,19.15
2022-09-12T15:59:00.120Z,19.10
2022-09-12T16:01:29.996Z,19.02
2022-09-12T16:03:58.642Z,19.02
2022-09-12T16:06:27.942Z,19.00
2022-09-12T16:08:56.504Z,18.99
2022-09-12T16:11:28.270Z,18.93
2022-09-12T16:13:57.032Z,18.87
2022-09-12T16:16:25.831Z,18.87
2022-09-12T16:18:53.895Z,18.84
2022-09-12T16:21:22.390Z,18.79
2022-09-12T16:23:50.665Z,18.79
2022-09-12T16:26:19.091Z,18.76
2022-09-12T16:28:49.303Z,18.67
2022-09-12T16:31:17.750Z,18.61
2022-09-12T16:33:45.887Z,18.61
2022-09-12T16:36:16.646Z,18.53
2022-09-12T16:38:45.957Z,18.61
2022-09-12T16:41:14.498Z,18.67
2022-09-12T16:43:43.735Z,18.57
2022-09-12T16:46:16.574Z,18.54
2022-09-12T16:48:50.896Z,18.48
2022-09-12T16:51:22.312Z,18.49
2022-09-12T16:53:50.776Z,18.46
2022-09-12T16:56:19.277Z,18.45
2022-09-12T16:58:47.877Z,18.41
2022-09-12T17:01:19.173Z,18.36
2022-09-12T17:03:47.680Z,18.37
2022-09-12T17:06:18.636Z,18.39
2022-09-12T17:08:49.512Z,18.39
2022-09-12T17:11:19.905Z,18.39
2022-09-12T17:14:03.669Z,18.44
2022-09-12T17:16:36.769Z,18.34
2022-09-12T17:19:05.837Z,18.32
2022-09-12T17:21:34.496Z,18.33
2022-09-12T17:24:03.600Z,18.28
2022-09-12T17:26:31.692Z,18.22
2022-09-12T17:29:00.154Z,18.22
2022-09-12T17:31:29.284Z,18.20
2022-09-12T17:34:01.402Z,18.16
2022-09-12T17:36:32.178Z,18.09
2022-09-12T17:39:00.949Z,18.13
2022-09-12T17:41:31.917Z,18.05
2022-09-12T17:44:01.455Z,18.06
2022-09-12T17:46:34.956Z,18.02
2022-09-12T17:49:06.820Z,18.01
2022-09-12T17:51:35.341Z,18.03
2022-09-12T17:54:06.124Z,17.94
2022-09-12T17:56:35.887Z,17.94
2022-09-12T17:59:05.416Z,17.93
2022-09-12T18:01:52.241Z,17.89
2022-09-12T18:04:21.933Z,17.89
2022-09-12T18:06:50.282Z,17.89
2022-09-12T18:09:19.886Z,17.86
2022-09-12T18:11:48.909Z,17.83
2022-09-12T18:14:17.692Z,17.77
2022-09-12T18:16:46.715Z,17.80
2022-09-12T18:19:15.664Z,17.79
2022-09-12T18:21:45.093Z,17.78
2022-09-12T18:24:13.648Z,17.77
2022-09-12T18:26:43.644Z,17.77
2022-09-12T18:29:12.417Z,17.76
2022-09-12T18:31:43.782Z,17.73
2022-09-12T18:34:13.944Z,17.75
2022-09-12T18:36:42.915Z,17.76
2022-09-12T18:39:14.220Z,17.73
2022-09-12T18:41:42.931Z,17.77
2022-09-12T18:44:12.803Z,17.75
2022-09-12T18:46:41.678Z,17.73
2022-09-12T18:49:10.973Z,17.74
2022-09-12T18:51:41.956Z,17.72
2022-09-12T18:54:15.929Z,17.69
2022-09-12T18:56:45.700Z,17.70
2022-09-12T18:59:15.062Z,17.75
2022-09-12T19:01:44.189Z,17.68
2022-09-12T19:04:15.105Z,17.63
2022-09-12T19:06:44.742Z,17.75
2022-09-12T19:09:16.145Z,17.70
2022-09-12T19:11:50.146Z,17.63
2022-09-12T19:14:20.277Z,17.71
2022-09-12T19:16:48.278Z,17.70
2022-09-12T19:19:16.419Z,17.68
2022-09-12T19:21:44.843Z,17.70
2022-09-12T19:24:14.909Z,17.69
2022-09-12T19:26:42.984Z,17.68
2022-09-12T19:29:14.541Z,17.64
2022-09-12T19:31:43.217Z,17.62
2022-09-12T19:34:12.293Z,17.56
2022-09-12T19:36:45.460Z,17.65
2022-09-12T19:39:17.571Z,17.64
2022-09-12T19:41:46.181Z,17.65
2022-09-12T19:44:14.959Z,17.65
2022-09-12T19:46:43.537Z,17.63
2022-09-12T19:49:13.102Z,17.61
2022-09-12T19:51:41.839Z,17.57
2022-09-12T19:54:10.353Z,17.57
2022-09-12T19:56:40.097Z,17.59
2022-09-12T19:59:08.812Z,17.58
2022-09-12T20:01:37.718Z,17.60
2022-09-12T20:04:07.141Z,17.62
2022-09-12T20:06:35.360Z,17.60
2022-09-12T20:09:03.778Z,17.56
2022-09-12T20:11:32.020Z,17.58
2022-09-12T20:14:01.616Z,17.54
2022-09-12T20:16:30.333Z,17.56
2022-09-12T20:19:01.023Z,17.51
2022-09-12T20:21:33.065Z,17.54
2022-09-12T20:24:03.257Z,17.55
2022-09-12T20:26:31.620Z,17.59
2022-09-12T20:29:01.686Z,17.58
2022-09-12T20:31:30.510Z,17.57
2022-09-12T20:33:59.567Z,17.58
2022-09-12T20:36:28.020Z,17.56
2022-09-12T20:38:58.140Z,17.54
2022-09-12T20:41:27.662Z,17.57
2022-09-12T20:43:57.310Z,17.57
2022-09-12T20:46:28.759Z,17.59
2022-09-12T20:48:58.579Z,17.55
2022-09-12T20:51:29.793Z,17.59
2022-09-12T20:53:59.188Z,17.60
2022-09-12T20:56:28.546Z,17.60
2022-09-12T20:58:57.426Z,17.61
2022-09-12T21:01:28.627Z,17.56
2022-09-12T21:03:56.629Z,17.55
2022-09-12T21:06:25.238Z,17.61
2022-09-12T21:08:54.280Z,17.56
2022-09-12T21:11:22.398Z,17.61
2022-09-12T21:13:50.756Z,17.58
2022-09-12T21:16:20.351Z,17.61
2022-09-12T21:18:55.633Z,17.56
2022-09-12T21:21:24.257Z,17.60
2022-09-12T21:23:54.173Z,17.62
2022-09-12T21:26:22.598Z,17.60
2022-09-12T21:28:50.845Z,17.62
2022-09-12T21:31:19.286Z,17.55
2022-09-12T21:33:47.697Z,17.60
2022-09-12T21:36:17.263Z,17.58
2022-09-12T21:38:45.416Z,17.56
2022-09-12T21:41:15.843Z,17.58
2022-09-12T21:43:45.129Z,17.61
2022-09-12T21:46:13.407Z,17.61
2022-09-12T21:48:41.612Z,17.67
2022-09-12T21:51:09.922Z,17.70
2022-09-12T21:53:40.038Z,17.72
2022-09-12T21:56:09.871Z,17.77
2022-09-12T21:58:38.704Z,17.80
2022-09-12T22:01:11.937Z,17.79
2022-09-12T22:03:43.174Z,17.81
2022-09-12T22:06:11.474Z,17.78
2022-09-12T22:08:41.592Z,17.81
2022-09-12T22:11:11.537Z,17.85
2022-09-12T22:13:42.064Z,17.81
2022-09-12T22:16:11.041Z,17.85
2022-09-12T22:18:39.778Z,17.87
2022-09-12T22:21:09.912Z,17.89
2022-09-12T22:23:55.704Z,17.92
2022-09-12T22:26:25.517Z,17.86
2022-09-12T22:28:54.176Z,17.89
2022-09-12T22:31:23.515Z,17.87
2022-09-12T22:33:52.073Z,17.84
2022-09-12T22:36:20.247Z,17.85
2022-09-12T22:38:48.412Z,17.80
2022-09-12T22:41:16.965Z,17.77
2022-09-12T22:43:46.624Z,17.75
2022-09-12T22:46:14.941Z,17.78
2022-09-12T22:48:43.129Z,17.80
2022-09-12T22:51:12.160Z,17.80
2022-09-12T22:53:41.021Z,17.77
2022-09-12T22:56:10.305Z,17.78
2022-09-12T22:58:38.688Z,17.79
2022-09-12T23:01:08.818Z,17.80
2022-09-12T23:03:37.581Z,17.84
2022-09-12T23:06:06.289Z,17.83
2022-09-12T23:08:36.514Z,17.82
2022-09-12T23:11:06.027Z,17.85
2022-09-12T23:13:34.498Z,17.81
2022-09-12T23:16:04.171Z,17.83
2022-09-12T23:18:35.876Z,17.80
2022-09-12T23:21:06.072Z,17.80
2022-09-12T23:23:34.584Z,17.83
2022-09-12T23:26:04.431Z,17.82
2022-09-12T23:28:32.692Z,17.87
2022-09-12T23:31:01.283Z,17.85
2022-09-12T23:33:30.536Z,17.76
2022-09-12T23:36:05.733Z,17.72
2022-09-12T23:38:34.995Z,17.55
2022-09-12T23:41:04.463Z,17.55
2022-09-12T23:43:33.063Z,17.48
2022-09-12T23:46:02.365Z,17.41
2022-09-12T23:48:30.603Z,17.41
2022-09-12T23:50:58.910Z,17.35
2022-09-12T23:53:29.635Z,17.36
2022-09-12T23:55:57.747Z,17.34
2022-09-12T23:58:26.347Z,17.30
